Lunamar — 5BNV2 — position and weather

sailwx.info

Track history (hours):
 
Tides and Currents Weather Stations Pressure Air Temp Water Temp Dewpoint Dewpoint Depression Visibility Wind Speed Wind Dir Waves Ship Positions

Lunamar

Last reported at 2015-May-23 00:33 UTC. Time now 2015-May-23 01:15 UTC.
Position N 56°12' E 012°29'.

Length 90 m; draft 5.4 m.

Type: Cargo ship. MMSI: 212762000.

Date/timePositionNaut miles runAvg speedWind from/ knotsBaromVisibWave heightAir tempDewpointWater temp
2015-May-23 00:33N 56°12' E 012°29'0 0.0
2015-May-22 23:33N 56°12' E 012°29'0 0.0
2015-May-22 22:30N 56°12' E 012°29'0 0.0
2015-May-22 21:33N 56°12' E 012°29'0 0.0
2015-May-22 20:33N 56°12' E 012°29'0 0.0
2015-May-22 19:33N 56°12' E 012°29'0 0.0
2015-May-22 18:33N 56°12' E 012°29'5 5.1
2015-May-22 17:33N 56°08' E 012°32'10 9.7
2015-May-22 16:33N 55°59' E 012°42'9 8.8
2015-May-22 15:33N 55°51' E 012°44'10 9.6
2015-May-22 14:33N 55°41' E 012°41'9 9.1
2015-May-22 13:33N 55°32' E 012°43'9 8.8
2015-May-22 12:33N 55°23' E 012°42'7 7.1
2015-May-22 11:33N 55°17' E 012°48'9 8.5
2015-May-22 10:33N 55°16' E 013°03'8 8.3
2015-May-22 09:33N 55°15' E 013°17'10 8.5
2015-May-22 08:22N 55°15' E 013°35'54 7.9
2015-May-22 01:30N 55°35' E 015°03'124 7.6
2015-May-21 09:08N 57°10' E 017°28'  
2015-May-14 11:23N 55°36' E 015°22'1011.1
2015-May-14 10:31N 55°31' E 015°07'1111.2
2015-May-14 09:33N 55°26' E 014°50'1110.7
2015-May-14 08:33N 55°20' E 014°35'1110.9
2015-May-14 07:33N 55°12' E 014°21'4510.4
2015-May-14 03:15N 55°14' E 013°02'710.4
2015-May-14 02:33N 55°15' E 012°50'9 8.7
2015-May-14 01:33N 55°20' E 012°38'1010.3
2015-May-14 00:34N 55°30' E 012°42'1110.9
2015-May-13 23:34N 55°41' E 012°41'1110.6
2015-May-13 22:34N 55°52' E 012°39'1110.9
2015-May-13 21:33N 56°03' E 012°39'1211.6
2015-May-13 20:34N 56°10' E 012°23'1311.1
2015-May-13 19:25N 56°17' E 012°04'2010.6
2015-May-13 17:34N 56°37' E 011°56'1510.8
2015-May-13 16:13N 56°51' E 011°49'2110.8
2015-May-13 14:14N 57°11' E 011°36'811.2
2015-May-13 13:33N 57°18' E 011°31'1111.0
2015-May-13 12:34N 57°28' E 011°22'1110.9
2015-May-13 11:33N 57°36' E 011°08'  
Track history (hours):
 
Tides and Currents Weather Stations Pressure Air Temp Water Temp Dewpoint Dewpoint Depression Visibility Wind Speed Wind Dir Waves Ship Positions

Lunamar

Last reported at 2015-May-23 00:33 UTC. Time now 2015-May-23 01:15 UTC.
Position N 56°12' E 012°29'.

Length 90 m; draft 5.4 m.

Type: Cargo ship. MMSI: 212762000.

Date/timePositionNaut miles runAvg speedWind from/ knotsBaromVisibWave heightAir tempDewpointWater temp
2015-May-23 00:33N 56°12' E 012°29'0 0.0
2015-May-22 23:33N 56°12' E 012°29'0 0.0
2015-May-22 22:30N 56°12' E 012°29'0 0.0
2015-May-22 21:33N 56°12' E 012°29'0 0.0
2015-May-22 20:33N 56°12' E 012°29'0 0.0
2015-May-22 19:33N 56°12' E 012°29'0 0.0
2015-May-22 18:33N 56°12' E 012°29'5 5.1
2015-May-22 17:33N 56°08' E 012°32'10 9.7
2015-May-22 16:33N 55°59' E 012°42'9 8.8
2015-May-22 15:33N 55°51' E 012°44'10 9.6
2015-May-22 14:33N 55°41' E 012°41'9 9.1
2015-May-22 13:33N 55°32' E 012°43'9 8.8
2015-May-22 12:33N 55°23' E 012°42'7 7.1
2015-May-22 11:33N 55°17' E 012°48'9 8.5
2015-May-22 10:33N 55°16' E 013°03'8 8.3
2015-May-22 09:33N 55°15' E 013°17'10 8.5
2015-May-22 08:22N 55°15' E 013°35'54 7.9
2015-May-22 01:30N 55°35' E 015°03'124 7.6
2015-May-21 09:08N 57°10' E 017°28'  
2015-May-14 11:23N 55°36' E 015°22'1011.1
2015-May-14 10:31N 55°31' E 015°07'1111.2
2015-May-14 09:33N 55°26' E 014°50'1110.7
2015-May-14 08:33N 55°20' E 014°35'1110.9
2015-May-14 07:33N 55°12' E 014°21'4510.4
2015-May-14 03:15N 55°14' E 013°02'710.4
2015-May-14 02:33N 55°15' E 012°50'9 8.7
2015-May-14 01:33N 55°20' E 012°38'1010.3
2015-May-14 00:34N 55°30' E 012°42'1110.9
2015-May-13 23:34N 55°41' E 012°41'1110.6
2015-May-13 22:34N 55°52' E 012°39'1110.9
2015-May-13 21:33N 56°03' E 012°39'1211.6
2015-May-13 20:34N 56°10' E 012°23'1311.1
2015-May-13 19:25N 56°17' E 012°04'2010.6
2015-May-13 17:34N 56°37' E 011°56'1510.8
2015-May-13 16:13N 56°51' E 011°49'2110.8
2015-May-13 14:14N 57°11' E 011°36'811.2
2015-May-13 13:33N 57°18' E 011°31'1111.0
2015-May-13 12:34N 57°28' E 011°22'1110.9
2015-May-13 11:33N 57°36' E 011°08'  

Dump ship's entire track history